sensor_id;sensor_type;location;lat;lon;timestamp;P1;durP1;ratioP1;P2;durP2;ratioP2
44987;SDS011;35735;52.226;21.254;2023-01-25T00:00:00;37.38;;;23.98;;
44987;SDS011;35735;52.226;21.254;2023-01-25T00:05:01;36.85;;;24.27;;
44987;SDS011;35735;52.226;21.254;2023-01-25T00:10:02;35.83;;;23.90;;
44987;SDS011;35735;52.226;21.254;2023-01-25T00:15:03;34.35;;;21.58;;
44987;SDS011;35735;52.226;21.254;2023-01-25T00:20:05;34.47;;;21.73;;
44987;SDS011;35735;52.226;21.254;2023-01-25T00:25:06;32.25;;;21.02;;
44987;SDS011;35735;52.226;21.254;2023-01-25T00:30:07;35.72;;;23.15;;
44987;SDS011;35735;52.226;21.254;2023-01-25T00:35:10;33.15;;;21.48;;
44987;SDS011;35735;52.226;21.254;2023-01-25T00:40:11;32.75;;;21.58;;
44987;SDS011;35735;52.226;21.254;2023-01-25T00:45:11;32.78;;;20.60;;
44987;SDS011;35735;52.226;21.254;2023-01-25T00:50:12;31.70;;;20.50;;
44987;SDS011;35735;52.226;21.254;2023-01-25T00:55:13;32.22;;;20.75;;
44987;SDS011;35735;52.226;21.254;2023-01-25T01:00:13;32.95;;;20.65;;
44987;SDS011;35735;52.226;21.254;2023-01-25T01:05:15;33.03;;;20.90;;
44987;SDS011;35735;52.226;21.254;2023-01-25T01:10:15;31.92;;;20.05;;
44987;SDS011;35735;52.226;21.254;2023-01-25T01:15:16;26.95;;;18.30;;
44987;SDS011;35735;52.226;21.254;2023-01-25T01:20:16;26.95;;;17.12;;
44987;SDS011;35735;52.226;21.254;2023-01-25T01:25:17;22.52;;;14.55;;
44987;SDS011;35735;52.226;21.254;2023-01-25T01:30:18;22.48;;;15.50;;
44987;SDS011;35735;52.226;21.254;2023-01-25T01:35:18;19.92;;;13.88;;
44987;SDS011;35735;52.226;21.254;2023-01-25T01:40:19;19.45;;;13.45;;
44987;SDS011;35735;52.226;21.254;2023-01-25T01:50:49;21.27;;;13.20;;
44987;SDS011;35735;52.226;21.254;2023-01-25T01:55:54;18.15;;;12.63;;
44987;SDS011;35735;52.226;21.254;2023-01-25T02:00:59;20.85;;;13.32;;
44987;SDS011;35735;52.226;21.254;2023-01-25T02:06:03;17.58;;;12.95;;
44987;SDS011;35735;52.226;21.254;2023-01-25T02:11:13;19.12;;;13.18;;
44987;SDS011;35735;52.226;21.254;2023-01-25T02:16:14;17.83;;;13.43;;
44987;SDS011;35735;52.226;21.254;2023-01-25T02:21:21;19.75;;;13.38;;
44987;SDS011;35735;52.226;21.254;2023-01-25T02:26:23;18.17;;;12.70;;
44987;SDS011;35735;52.226;21.254;2023-01-25T02:31:24;19.02;;;13.20;;
44987;SDS011;35735;52.226;21.254;2023-01-25T02:41:34;18.87;;;12.90;;
44987;SDS011;35735;52.226;21.254;2023-01-25T02:46:38;16.67;;;12.23;;
44987;SDS011;35735;52.226;21.254;2023-01-25T02:51:43;18.42;;;12.07;;
44987;SDS011;35735;52.226;21.254;2023-01-25T02:56:49;15.90;;;12.13;;
44987;SDS011;35735;52.226;21.254;2023-01-25T03:01:50;17.45;;;11.23;;
44987;SDS011;35735;52.226;21.254;2023-01-25T03:06:50;15.15;;;11.60;;
44987;SDS011;35735;52.226;21.254;2023-01-25T03:11:51;15.95;;;11.45;;
44987;SDS011;35735;52.226;21.254;2023-01-25T03:16:52;15.85;;;11.88;;
44987;SDS011;35735;52.226;21.254;2023-01-25T03:21:52;15.65;;;11.95;;
44987;SDS011;35735;52.226;21.254;2023-01-25T03:26:53;16.73;;;12.00;;
44987;SDS011;35735;52.226;21.254;2023-01-25T03:31:53;16.50;;;12.60;;
44987;SDS011;35735;52.226;21.254;2023-01-25T03:36:54;17.48;;;12.52;;
44987;SDS011;35735;52.226;21.254;2023-01-25T03:41:57;17.80;;;12.57;;
44987;SDS011;35735;52.226;21.254;2023-01-25T03:46:57;17.02;;;12.52;;
44987;SDS011;35735;52.226;21.254;2023-01-25T03:51:58;15.55;;;12.18;;
44987;SDS011;35735;52.226;21.254;2023-01-25T03:56:59;19.90;;;12.85;;
44987;SDS011;35735;52.226;21.254;2023-01-25T04:02:00;15.93;;;12.13;;
44987;SDS011;35735;52.226;21.254;2023-01-25T04:07:01;16.92;;;12.27;;
44987;SDS011;35735;52.226;21.254;2023-01-25T04:12:01;16.85;;;12.27;;
44987;SDS011;35735;52.226;21.254;2023-01-25T04:17:02;17.58;;;12.40;;
44987;SDS011;35735;52.226;21.254;2023-01-25T04:22:06;17.05;;;12.07;;
44987;SDS011;35735;52.226;21.254;2023-01-25T04:27:06;16.58;;;12.75;;
44987;SDS011;35735;52.226;21.254;2023-01-25T04:32:07;16.55;;;12.88;;
44987;SDS011;35735;52.226;21.254;2023-01-25T04:37:08;18.58;;;13.10;;
44987;SDS011;35735;52.226;21.254;2023-01-25T04:42:08;17.75;;;12.50;;
44987;SDS011;35735;52.226;21.254;2023-01-25T04:47:11;18.02;;;12.68;;
44987;SDS011;35735;52.226;21.254;2023-01-25T04:52:11;17.35;;;12.45;;
44987;SDS011;35735;52.226;21.254;2023-01-25T04:57:12;17.73;;;12.55;;
44987;SDS011;35735;52.226;21.254;2023-01-25T05:02:13;16.92;;;12.30;;
44987;SDS011;35735;52.226;21.254;2023-01-25T05:07:13;17.15;;;12.25;;
44987;SDS011;35735;52.226;21.254;2023-01-25T05:12:14;19.73;;;12.32;;
44987;SDS011;35735;52.226;21.254;2023-01-25T05:17:14;18.77;;;12.60;;
44987;SDS011;35735;52.226;21.254;2023-01-25T05:22:16;17.33;;;12.70;;
44987;SDS011;35735;52.226;21.254;2023-01-25T05:27:18;16.70;;;12.68;;
44987;SDS011;35735;52.226;21.254;2023-01-25T05:32:20;15.35;;;10.05;;
44987;SDS011;35735;52.226;21.254;2023-01-25T05:37:22;14.18;;;10.75;;
44987;SDS011;35735;52.226;21.254;2023-01-25T05:42:23;18.30;;;13.38;;
44987;SDS011;35735;52.226;21.254;2023-01-25T05:47:23;19.83;;;14.57;;
44987;SDS011;35735;52.226;21.254;2023-01-25T05:52:24;18.92;;;14.20;;
44987;SDS011;35735;52.226;21.254;2023-01-25T05:57:25;23.10;;;16.33;;
44987;SDS011;35735;52.226;21.254;2023-01-25T06:02:25;25.40;;;16.80;;
44987;SDS011;35735;52.226;21.254;2023-01-25T06:07:26;27.10;;;18.42;;
44987;SDS011;35735;52.226;21.254;2023-01-25T06:12:26;31.90;;;20.70;;
44987;SDS011;35735;52.226;21.254;2023-01-25T06:17:27;29.83;;;20.55;;
44987;SDS011;35735;52.226;21.254;2023-01-25T06:22:27;30.58;;;20.02;;
44987;SDS011;35735;52.226;21.254;2023-01-25T06:27:28;31.75;;;21.50;;
44987;SDS011;35735;52.226;21.254;2023-01-25T06:32:32;33.50;;;21.48;;
44987;SDS011;35735;52.226;21.254;2023-01-25T06:37:32;35.03;;;22.70;;
44987;SDS011;35735;52.226;21.254;2023-01-25T06:42:33;34.00;;;22.23;;
44987;SDS011;35735;52.226;21.254;2023-01-25T06:47:34;36.22;;;22.83;;
44987;SDS011;35735;52.226;21.254;2023-01-25T06:52:34;34.95;;;23.17;;
44987;SDS011;35735;52.226;21.254;2023-01-25T06:57:35;35.05;;;22.70;;
44987;SDS011;35735;52.226;21.254;2023-01-25T07:02:36;34.88;;;23.02;;
44987;SDS011;35735;52.226;21.254;2023-01-25T07:07:37;39.92;;;24.75;;
44987;SDS011;35735;52.226;21.254;2023-01-25T07:12:37;40.17;;;24.23;;
44987;SDS011;35735;52.226;21.254;2023-01-25T07:17:38;39.80;;;24.70;;
44987;SDS011;35735;52.226;21.254;2023-01-25T07:22:38;43.65;;;26.75;;
44987;SDS011;35735;52.226;21.254;2023-01-25T07:27:39;41.78;;;25.77;;
44987;SDS011;35735;52.226;21.254;2023-01-25T07:32:40;45.53;;;26.60;;
44987;SDS011;35735;52.226;21.254;2023-01-25T07:37:40;42.58;;;26.17;;
44987;SDS011;35735;52.226;21.254;2023-01-25T07:42:41;45.55;;;26.23;;
44987;SDS011;35735;52.226;21.254;2023-01-25T07:47:41;45.65;;;26.92;;
44987;SDS011;35735;52.226;21.254;2023-01-25T07:52:42;45.90;;;27.20;;
44987;SDS011;35735;52.226;21.254;2023-01-25T07:57:42;48.92;;;29.25;;
44987;SDS011;35735;52.226;21.254;2023-01-25T08:02:43;45.92;;;27.95;;
44987;SDS011;35735;52.226;21.254;2023-01-25T08:07:44;47.13;;;27.87;;
44987;SDS011;35735;52.226;21.254;2023-01-25T08:12:45;43.70;;;27.67;;
44987;SDS011;35735;52.226;21.254;2023-01-25T08:17:46;48.40;;;28.55;;
44987;SDS011;35735;52.226;21.254;2023-01-25T08:22:46;50.17;;;28.52;;
44987;SDS011;35735;52.226;21.254;2023-01-25T08:27:47;47.95;;;28.17;;
44987;SDS011;35735;52.226;21.254;2023-01-25T08:32:47;48.50;;;29.12;;
44987;SDS011;35735;52.226;21.254;2023-01-25T08:37:48;51.03;;;29.25;;
44987;SDS011;35735;52.226;21.254;2023-01-25T08:42:48;48.60;;;29.08;;
44987;SDS011;35735;52.226;21.254;2023-01-25T08:47:49;49.67;;;29.58;;
44987;SDS011;35735;52.226;21.254;2023-01-25T08:52:50;50.58;;;30.15;;
44987;SDS011;35735;52.226;21.254;2023-01-25T08:57:51;47.80;;;29.15;;
44987;SDS011;35735;52.226;21.254;2023-01-25T09:02:51;49.35;;;28.62;;
44987;SDS011;35735;52.226;21.254;2023-01-25T09:07:52;49.97;;;28.55;;
44987;SDS011;35735;52.226;21.254;2023-01-25T09:12:52;50.12;;;29.45;;
44987;SDS011;35735;52.226;21.254;2023-01-25T09:17:54;51.25;;;27.25;;
44987;SDS011;35735;52.226;21.254;2023-01-25T09:22:55;43.28;;;27.33;;
44987;SDS011;35735;52.226;21.254;2023-01-25T09:27:56;46.13;;;26.45;;
44987;SDS011;35735;52.226;21.254;2023-01-25T09:32:56;43.95;;;26.85;;
44987;SDS011;35735;52.226;21.254;2023-01-25T09:37:57;39.47;;;26.10;;
44987;SDS011;35735;52.226;21.254;2023-01-25T09:48:39;45.97;;;27.45;;
44987;SDS011;35735;52.226;21.254;2023-01-25T09:53:55;50.55;;;28.87;;
44987;SDS011;35735;52.226;21.254;2023-01-25T09:58:57;43.58;;;27.08;;
44987;SDS011;35735;52.226;21.254;2023-01-25T10:04:22;38.05;;;23.90;;
44987;SDS011;35735;52.226;21.254;2023-01-25T10:14:58;34.42;;;21.83;;
44987;SDS011;35735;52.226;21.254;2023-01-25T10:20:07;34.00;;;21.08;;
44987;SDS011;35735;52.226;21.254;2023-01-25T10:30:58;35.80;;;22.27;;
44987;SDS011;35735;52.226;21.254;2023-01-25T10:36:16;37.88;;;24.02;;
44987;SDS011;35735;52.226;21.254;2023-01-25T10:41:24;38.17;;;24.17;;
44987;SDS011;35735;52.226;21.254;2023-01-25T10:46:34;42.42;;;23.67;;
44987;SDS011;35735;52.226;21.254;2023-01-25T10:51:37;36.58;;;23.27;;
44987;SDS011;35735;52.226;21.254;2023-01-25T10:56:37;36.70;;;23.23;;
44987;SDS011;35735;52.226;21.254;2023-01-25T11:01:38;38.70;;;23.55;;
44987;SDS011;35735;52.226;21.254;2023-01-25T11:06:45;42.88;;;24.98;;
44987;SDS011;35735;52.226;21.254;2023-01-25T11:12:00;40.42;;;23.83;;
44987;SDS011;35735;52.226;21.254;2023-01-25T11:17:07;39.70;;;24.75;;
44987;SDS011;35735;52.226;21.254;2023-01-25T11:22:30;42.40;;;25.08;;
44987;SDS011;35735;52.226;21.254;2023-01-25T11:27:30;43.10;;;24.95;;
44987;SDS011;35735;52.226;21.254;2023-01-25T11:32:31;41.20;;;25.70;;
44987;SDS011;35735;52.226;21.254;2023-01-25T11:43:24;43.05;;;26.70;;
44987;SDS011;35735;52.226;21.254;2023-01-25T12:05:42;45.10;;;26.85;;
44987;SDS011;35735;52.226;21.254;2023-01-25T12:33:16;50.33;;;29.60;;
44987;SDS011;35735;52.226;21.254;2023-01-25T12:38:51;46.35;;;28.60;;
44987;SDS011;35735;52.226;21.254;2023-01-25T12:44:08;49.13;;;28.45;;
44987;SDS011;35735;52.226;21.254;2023-01-25T12:49:52;47.55;;;28.45;;
44987;SDS011;35735;52.226;21.254;2023-01-25T12:55:00;49.80;;;30.50;;
44987;SDS011;35735;52.226;21.254;2023-01-25T13:00:16;50.47;;;29.02;;
44987;SDS011;35735;52.226;21.254;2023-01-25T13:11:20;52.47;;;29.85;;
44987;SDS011;35735;52.226;21.254;2023-01-25T13:16:32;49.80;;;29.73;;
44987;SDS011;35735;52.226;21.254;2023-01-25T13:21:41;49.40;;;30.00;;
44987;SDS011;35735;52.226;21.254;2023-01-25T13:31:53;50.95;;;30.60;;
44987;SDS011;35735;52.226;21.254;2023-01-25T13:36:54;50.20;;;30.02;;
44987;SDS011;35735;52.226;21.254;2023-01-25T13:47:26;48.67;;;28.02;;
44987;SDS011;35735;52.226;21.254;2023-01-25T13:52:31;49.90;;;29.75;;
44987;SDS011;35735;52.226;21.254;2023-01-25T13:57:31;50.20;;;29.42;;
44987;SDS011;35735;52.226;21.254;2023-01-25T14:02:32;54.42;;;30.65;;
44987;SDS011;35735;52.226;21.254;2023-01-25T14:07:37;52.50;;;30.37;;
44987;SDS011;35735;52.226;21.254;2023-01-25T14:12:39;54.95;;;31.52;;
44987;SDS011;35735;52.226;21.254;2023-01-25T14:17:42;55.00;;;31.33;;
44987;SDS011;35735;52.226;21.254;2023-01-25T14:22:45;54.42;;;31.12;;
44987;SDS011;35735;52.226;21.254;2023-01-25T14:27:51;50.63;;;29.42;;
44987;SDS011;35735;52.226;21.254;2023-01-25T14:32:54;56.47;;;30.65;;
44987;SDS011;35735;52.226;21.254;2023-01-25T14:37:58;55.03;;;31.42;;
44987;SDS011;35735;52.226;21.254;2023-01-25T14:42:59;53.40;;;31.20;;
44987;SDS011;35735;52.226;21.254;2023-01-25T14:48:00;54.47;;;31.62;;
44987;SDS011;35735;52.226;21.254;2023-01-25T14:53:14;54.53;;;30.42;;
44987;SDS011;35735;52.226;21.254;2023-01-25T14:58:21;52.33;;;31.12;;
44987;SDS011;35735;52.226;21.254;2023-01-25T15:03:24;52.88;;;30.85;;
44987;SDS011;35735;52.226;21.254;2023-01-25T15:13:29;50.78;;;30.77;;
44987;SDS011;35735;52.226;21.254;2023-01-25T15:18:49;59.70;;;32.65;;
44987;SDS011;35735;52.226;21.254;2023-01-25T15:23:54;62.10;;;34.78;;
44987;SDS011;35735;52.226;21.254;2023-01-25T15:28:58;59.65;;;31.62;;
44987;SDS011;35735;52.226;21.254;2023-01-25T15:34:22;56.03;;;30.23;;
44987;SDS011;35735;52.226;21.254;2023-01-25T15:39:27;57.15;;;30.92;;
44987;SDS011;35735;52.226;21.254;2023-01-25T15:44:27;50.20;;;29.33;;
44987;SDS011;35735;52.226;21.254;2023-01-25T15:49:30;53.50;;;30.23;;
44987;SDS011;35735;52.226;21.254;2023-01-25T15:54:31;51.03;;;30.27;;
44987;SDS011;35735;52.226;21.254;2023-01-25T15:59:31;49.88;;;28.50;;
44987;SDS011;35735;52.226;21.254;2023-01-25T16:04:32;55.92;;;29.42;;
44987;SDS011;35735;52.226;21.254;2023-01-25T16:09:32;50.38;;;29.35;;
44987;SDS011;35735;52.226;21.254;2023-01-25T16:14:33;56.45;;;31.95;;
44987;SDS011;35735;52.226;21.254;2023-01-25T16:19:34;57.42;;;32.13;;
44987;SDS011;35735;52.226;21.254;2023-01-25T16:24:34;56.37;;;34.10;;
44987;SDS011;35735;52.226;21.254;2023-01-25T16:29:35;55.72;;;31.37;;
44987;SDS011;35735;52.226;21.254;2023-01-25T16:34:35;50.00;;;30.33;;
44987;SDS011;35735;52.226;21.254;2023-01-25T16:39:36;52.53;;;30.40;;
44987;SDS011;35735;52.226;21.254;2023-01-25T16:44:37;54.67;;;31.45;;
44987;SDS011;35735;52.226;21.254;2023-01-25T16:49:37;52.17;;;29.52;;
44987;SDS011;35735;52.226;21.254;2023-01-25T16:54:38;54.03;;;31.02;;
44987;SDS011;35735;52.226;21.254;2023-01-25T16:59:39;53.33;;;31.80;;
44987;SDS011;35735;52.226;21.254;2023-01-25T17:04:39;52.80;;;30.30;;
44987;SDS011;35735;52.226;21.254;2023-01-25T17:09:40;53.60;;;30.15;;
44987;SDS011;35735;52.226;21.254;2023-01-25T17:14:41;46.80;;;27.60;;
44987;SDS011;35735;52.226;21.254;2023-01-25T17:19:41;50.33;;;30.30;;
44987;SDS011;35735;52.226;21.254;2023-01-25T17:24:42;49.58;;;29.37;;
44987;SDS011;35735;52.226;21.254;2023-01-25T17:29:43;52.88;;;30.83;;
44987;SDS011;35735;52.226;21.254;2023-01-25T17:34:43;51.13;;;30.45;;
44987;SDS011;35735;52.226;21.254;2023-01-25T17:39:44;50.17;;;30.95;;
44987;SDS011;35735;52.226;21.254;2023-01-25T17:44:44;52.13;;;31.37;;
44987;SDS011;35735;52.226;21.254;2023-01-25T17:49:45;58.75;;;33.05;;
44987;SDS011;35735;52.226;21.254;2023-01-25T17:54:48;53.03;;;32.47;;
44987;SDS011;35735;52.226;21.254;2023-01-25T17:59:48;52.42;;;31.85;;
44987;SDS011;35735;52.226;21.254;2023-01-25T18:04:49;58.35;;;33.33;;
44987;SDS011;35735;52.226;21.254;2023-01-25T18:09:50;58.13;;;33.35;;
44987;SDS011;35735;52.226;21.254;2023-01-25T18:14:50;54.72;;;32.72;;
44987;SDS011;35735;52.226;21.254;2023-01-25T18:19:51;56.03;;;33.28;;
44987;SDS011;35735;52.226;21.254;2023-01-25T18:24:52;57.40;;;33.95;;
44987;SDS011;35735;52.226;21.254;2023-01-25T18:29:54;54.75;;;32.95;;
44987;SDS011;35735;52.226;21.254;2023-01-25T18:35:02;55.25;;;33.63;;
44987;SDS011;35735;52.226;21.254;2023-01-25T18:40:04;54.53;;;34.00;;
44987;SDS011;35735;52.226;21.254;2023-01-25T18:45:06;52.30;;;32.58;;
44987;SDS011;35735;52.226;21.254;2023-01-25T18:50:07;58.30;;;33.72;;
44987;SDS011;35735;52.226;21.254;2023-01-25T18:55:09;58.87;;;33.33;;
44987;SDS011;35735;52.226;21.254;2023-01-25T19:00:10;48.58;;;31.48;;
44987;SDS011;35735;52.226;21.254;2023-01-25T19:05:11;53.78;;;32.67;;
44987;SDS011;35735;52.226;21.254;2023-01-25T19:10:12;51.67;;;29.83;;
44987;SDS011;35735;52.226;21.254;2023-01-25T19:15:13;49.55;;;28.80;;
44987;SDS011;35735;52.226;21.254;2023-01-25T19:20:13;52.88;;;31.52;;
44987;SDS011;35735;52.226;21.254;2023-01-25T19:25:14;53.22;;;32.63;;
44987;SDS011;35735;52.226;21.254;2023-01-25T19:30:15;50.20;;;30.08;;
44987;SDS011;35735;52.226;21.254;2023-01-25T19:35:15;50.35;;;30.20;;
44987;SDS011;35735;52.226;21.254;2023-01-25T19:40:16;49.22;;;28.85;;
44987;SDS011;35735;52.226;21.254;2023-01-25T19:45:17;54.58;;;30.60;;
44987;SDS011;35735;52.226;21.254;2023-01-25T19:50:17;47.78;;;28.40;;
44987;SDS011;35735;52.226;21.254;2023-01-25T19:55:18;47.15;;;28.98;;
44987;SDS011;35735;52.226;21.254;2023-01-25T20:00:19;44.92;;;27.70;;
44987;SDS011;35735;52.226;21.254;2023-01-25T20:05:19;46.95;;;28.02;;
44987;SDS011;35735;52.226;21.254;2023-01-25T20:10:20;47.08;;;28.38;;
44987;SDS011;35735;52.226;21.254;2023-01-25T20:15:23;45.67;;;28.70;;
44987;SDS011;35735;52.226;21.254;2023-01-25T20:20:24;45.70;;;29.00;;
44987;SDS011;35735;52.226;21.254;2023-01-25T20:25:24;49.67;;;29.52;;
44987;SDS011;35735;52.226;21.254;2023-01-25T20:30:25;45.60;;;27.77;;
44987;SDS011;35735;52.226;21.254;2023-01-25T20:35:26;47.42;;;28.98;;
44987;SDS011;35735;52.226;21.254;2023-01-25T20:40:26;49.28;;;29.12;;
44987;SDS011;35735;52.226;21.254;2023-01-25T20:45:30;50.47;;;29.85;;
44987;SDS011;35735;52.226;21.254;2023-01-25T20:50:31;49.42;;;30.17;;
44987;SDS011;35735;52.226;21.254;2023-01-25T20:55:31;51.15;;;29.85;;
44987;SDS011;35735;52.226;21.254;2023-01-25T21:00:32;49.22;;;29.23;;
44987;SDS011;35735;52.226;21.254;2023-01-25T21:05:33;51.25;;;30.42;;
44987;SDS011;35735;52.226;21.254;2023-01-25T21:10:33;45.30;;;28.62;;
44987;SDS011;35735;52.226;21.254;2023-01-25T21:15:36;46.65;;;29.80;;
44987;SDS011;35735;52.226;21.254;2023-01-25T21:20:37;50.65;;;29.27;;
44987;SDS011;35735;52.226;21.254;2023-01-25T21:25:37;48.38;;;29.30;;
44987;SDS011;35735;52.226;21.254;2023-01-25T21:30:38;48.05;;;29.52;;
44987;SDS011;35735;52.226;21.254;2023-01-25T21:35:39;50.65;;;30.15;;
44987;SDS011;35735;52.226;21.254;2023-01-25T21:40:41;48.35;;;28.87;;
44987;SDS011;35735;52.226;21.254;2023-01-25T21:45:42;51.63;;;30.42;;
44987;SDS011;35735;52.226;21.254;2023-01-25T21:50:43;49.40;;;30.58;;
44987;SDS011;35735;52.226;21.254;2023-01-25T21:55:44;52.90;;;31.42;;
44987;SDS011;35735;52.226;21.254;2023-01-25T22:00:44;51.40;;;30.83;;
44987;SDS011;35735;52.226;21.254;2023-01-25T22:05:45;50.05;;;30.55;;
44987;SDS011;35735;52.226;21.254;2023-01-25T22:10:59;50.72;;;31.60;;
44987;SDS011;35735;52.226;21.254;2023-01-25T22:16:05;50.42;;;30.92;;
44987;SDS011;35735;52.226;21.254;2023-01-25T22:21:14;50.15;;;31.10;;
44987;SDS011;35735;52.226;21.254;2023-01-25T22:26:18;56.03;;;32.88;;
44987;SDS011;35735;52.226;21.254;2023-01-25T22:31:24;51.17;;;31.73;;
44987;SDS011;35735;52.226;21.254;2023-01-25T22:36:27;54.28;;;31.83;;
44987;SDS011;35735;52.226;21.254;2023-01-25T22:41:34;52.78;;;32.33;;
44987;SDS011;35735;52.226;21.254;2023-01-25T22:46:36;56.33;;;34.40;;
44987;SDS011;35735;52.226;21.254;2023-01-25T22:51:37;55.90;;;33.35;;
44987;SDS011;35735;52.226;21.254;2023-01-25T22:56:37;56.25;;;34.47;;
44987;SDS011;35735;52.226;21.254;2023-01-25T23:01:38;58.40;;;34.80;;
44987;SDS011;35735;52.226;21.254;2023-01-25T23:06:38;59.90;;;34.63;;
44987;SDS011;35735;52.226;21.254;2023-01-25T23:11:39;58.85;;;33.80;;
44987;SDS011;35735;52.226;21.254;2023-01-25T23:16:40;58.47;;;33.10;;
44987;SDS011;35735;52.226;21.254;2023-01-25T23:21:42;61.78;;;35.08;;
44987;SDS011;35735;52.226;21.254;2023-01-25T23:26:42;54.45;;;34.05;;
44987;SDS011;35735;52.226;21.254;2023-01-25T23:31:43;60.65;;;35.25;;
44987;SDS011;35735;52.226;21.254;2023-01-25T23:36:44;63.45;;;35.95;;
44987;SDS011;35735;52.226;21.254;2023-01-25T23:41:44;62.47;;;35.53;;
44987;SDS011;35735;52.226;21.254;2023-01-25T23:46:45;58.78;;;34.83;;
44987;SDS011;35735;52.226;21.254;2023-01-25T23:51:45;59.70;;;35.03;;
44987;SDS011;35735;52.226;21.254;2023-01-25T23:56:46;58.30;;;35.13;;
